Terminal Aerodrome Forecast
Issued by NWS

Home | Current Version | Previous Version | Text Only | Print | Product List | Glossary On
Versions: 1 2 3 4 5 6 7 8 9 10 11 12 13 14 15 16 17 18 19 20 21 22 23 24 25
000
FTUS45 KTWC 250100 AAA
TAFOLS
TAF AMD
KOLS 250159Z 2502/2524 24014G19KT P6SM VCSH SCT110
     FM250400 VRB04KT P6SM SCT100 SCT250
     FM251800 17005KT P6SM FEW080
     FM252000 21009KT P6SM VCSH SCT090 BKN150=

USA.gov is the U.S. government's official web portal to all federal, state and local government web resources and services.